Time;durP1;ratioP1;P1;durP2;ratioP2;P2;SDS_P1;SDS_P2;PMS_P1;PMS_P2;Temp;Humidity;BMP_temperature;BMP_pressure;BME280_temperature;BME280_humidity;BME280_pressure;Samples;Min_cycle;Max_cycle;Signal;HPM_P1;HPM_P2
2023/07/10 05:03:27;;;;;;;11.13;5.20;;;24.10;80.50;;;;;;5011150;23;20052;-77
2023/07/10 05:05:58;;;;;;;10.70;5.20;;;24.10;80.60;;;;;;4926873;29;20028;-75
2023/07/10 05:08:26;;;;;;;11.45;4.35;;;24.10;80.90;;;;;;4927175;29;20631;-77
2023/07/10 05:10:54;;;;;;;;;;;24.00;80.50;;;;;;4927856;29;20105;-76
2023/07/10 05:13:24;;;;;;;9.73;4.80;;;24.10;80.80;;;;;;4927255;29;19946;-77
2023/07/10 05:15:51;;;;;;;10.13;4.78;;;24.30;80.50;;;;;;4908524;29;20240;-75
2023/07/10 05:18:16;;;;;;;8.05;5.07;;;24.40;78.90;;;;;;4925419;29;20016;-75
2023/07/10 05:20:47;;;;;;;12.00;4.82;;;24.60;80.10;;;;;;4925923;29;20047;-76
2023/07/10 05:23:14;;;;;;;9.75;5.00;;;24.80;80.00;;;;;;4925724;29;20031;-77
2023/07/10 05:25:40;;;;;;;9.32;5.03;;;24.80;79.70;;;;;;4926206;29;20056;-76
2023/07/10 05:28:06;;;;;;;15.50;8.40;;;24.90;79.30;;;;;;4925777;29;20036;-79
2023/07/10 05:30:35;;;;;;;9.68;5.18;;;24.90;79.70;;;;;;4926331;29;20060;-78
2023/07/10 05:33:03;;;;;;;11.00;5.00;;;24.90;79.00;;;;;;4926005;29;20032;-76
2023/07/10 05:35:28;;;;;;;12.27;8.02;;;25.10;78.90;;;;;;4922453;29;20243;-77
2023/07/10 05:37:54;;;;;;;14.98;6.75;;;25.20;78.60;;;;;;4907248;29;20097;-78
2023/07/10 05:40:20;;;;;;;15.20;7.05;;;25.30;78.50;;;;;;4907793;29;20048;-78
2023/07/10 05:42:46;;;;;;;13.85;7.13;;;25.40;78.10;;;;;;4907920;29;20365;-78
2023/07/10 05:45:11;;;;;;;16.20;7.30;;;25.50;78.10;;;;;;4907579;29;20108;-77
2023/07/10 05:47:37;;;;;;;14.13;8.35;;;25.50;77.80;;;;;;4908185;29;20361;-77
2023/07/10 05:50:03;;;;;;;14.15;5.63;;;25.60;77.60;;;;;;4907884;29;20117;-78
2023/07/10 05:52:28;;;;;;;14.48;6.93;;;25.60;77.80;;;;;;4908634;29;20089;-77
2023/07/10 05:54:54;;;;;;;10.70;5.35;;;25.70;76.70;;;;;;4907940;29;20225;-77
2023/07/10 05:57:20;;;;;;;10.52;4.93;;;25.90;77.10;;;;;;4907324;29;20028;-77
2023/07/10 05:59:46;;;;;;;11.65;4.88;;;26.10;75.60;;;;;;4906720;29;20040;-78
2023/07/10 06:02:21;;;;;;;16.83;7.38;;;26.20;76.40;;;;;;4904663;29;20064;-78
2023/07/10 06:05:30;;;;;;;15.38;5.43;;;26.30;76.00;;;;;;4911880;29;20096;-79
2023/07/10 06:08:14;;;;;;;14.93;5.95;;;26.50;75.80;;;;;;4907447;29;20032;-79
2023/07/10 06:11:28;;;;;;;14.70;5.55;;;26.60;76.10;;;;;;4905707;29;20032;-79
2023/07/10 06:13:59;;;;;;;14.10;5.18;;;26.80;75.50;;;;;;4905609;29;20044;-79
2023/07/10 06:16:31;;;;;;;12.30;5.38;;;27.00;75.00;;;;;;4907001;29;20048;-79
2023/07/10 06:19:22;;;;;;;10.37;5.30;;;27.30;74.80;;;;;;4920198;29;20093;-81
2023/07/10 06:22:15;;;;;;;12.10;5.80;;;27.70;73.70;;;;;;4907497;29;20037;-83
2023/07/10 06:24:41;;;;;;;23.63;5.95;;;28.00;73.40;;;;;;4906800;29;20032;-81
2023/07/10 06:27:10;;;;;;;12.10;5.65;;;28.30;73.00;;;;;;4907703;29;20044;-76
2023/07/10 06:29:51;;;;;;;8.05;3.90;;;28.50;71.90;;;;;;4909814;29;20037;-79
2023/07/10 06:32:20;;;;;;;9.10;4.40;;;28.60;71.30;;;;;;4906080;29;20044;-77
2023/07/10 06:34:49;;;;;;;10.32;4.65;;;28.60;71.10;;;;;;4907179;29;20025;-78
2023/07/10 06:37:14;;;;;;;7.32;4.28;;;28.70;71.20;;;;;;4905583;29;20029;-78
2023/07/10 06:39:41;;;;;;;7.35;3.80;;;28.40;71.10;;;;;;4906304;29;20044;-79
2023/07/10 06:42:07;;;;;;;8.95;3.97;;;28.40;71.30;;;;;;4905770;29;20073;-79
2023/07/10 06:44:33;;;;;;;8.23;4.25;;;28.20;71.80;;;;;;4905357;29;20037;-74
2023/07/10 06:46:59;;;;;;;9.25;4.10;;;28.20;72.00;;;;;;4905795;29;20035;-78
2023/07/10 06:49:26;;;;;;;9.07;4.90;;;28.40;72.20;;;;;;4897552;29;20065;-78
2023/07/10 06:51:51;;;;;;;12.27;5.05;;;28.60;71.70;;;;;;4902664;29;20044;-75
2023/07/10 06:54:17;;;;;;;9.38;5.00;;;28.80;71.60;;;;;;4886942;29;20021;-74
2023/07/10 06:56:43;;;;;;;11.07;4.97;;;29.00;71.10;;;;;;4888268;29;20332;-77
2023/07/10 06:59:08;;;;;;;11.55;4.60;;;29.30;70.50;;;;;;4888329;29;20037;-75
2023/07/10 07:01:34;;;;;;;11.52;4.50;;;29.70;69.40;;;;;;4888067;29;20314;-76
2023/07/10 07:04:01;;;;;;;11.32;4.57;;;30.00;68.90;;;;;;4888473;29;20048;-76
2023/07/10 07:06:26;;;;;;;7.78;4.05;;;30.30;68.20;;;;;;4900339;29;20104;-75
2023/07/10 07:08:52;;;;;;;8.82;3.97;;;30.30;68.10;;;;;;4905690;29;20032;-74
2023/07/10 07:11:18;;;;;;;8.10;4.60;;;30.30;67.60;;;;;;4906403;29;20028;-75
2023/07/10 07:13:44;;;;;;;14.18;4.78;;;30.20;67.70;;;;;;4906541;29;20032;-76
2023/07/10 07:16:10;;;;;;;6.90;4.13;;;30.20;68.00;;;;;;4905794;29;20036;-75
2023/07/10 07:18:36;;;;;;;10.02;4.60;;;30.20;68.50;;;;;;4906785;29;20059;-74
2023/07/10 07:21:02;;;;;;;7.88;4.03;;;30.00;68.20;;;;;;4906659;29;20033;-77
2023/07/10 07:23:28;;;;;;;7.07;3.75;;;30.00;68.50;;;;;;4906083;29;20214;-74
2023/07/10 07:25:55;;;;;;;6.10;3.47;;;30.00;68.90;;;;;;4907083;29;20091;-74
2023/07/10 07:28:21;;;;;;;6.60;3.55;;;30.00;68.90;;;;;;4905386;29;20274;-75
2023/07/10 07:30:47;;;;;;;6.60;3.60;;;29.70;69.60;;;;;;4909884;29;20230;-75
2023/07/10 07:33:17;;;;;;;6.50;3.47;;;29.50;69.80;;;;;;4909559;29;20040;-74
2023/07/10 07:35:43;;;;;;;6.10;3.60;;;29.20;70.50;;;;;;4910336;29;20068;-75
2023/07/10 07:38:09;;;;;;;10.30;3.50;;;29.20;71.00;;;;;;4910414;29;20052;-74
2023/07/10 07:40:36;;;;;;;7.55;3.42;;;29.30;70.80;;;;;;4909951;29;20057;-76
2023/07/10 07:43:02;;;;;;;8.57;3.53;;;29.20;70.40;;;;;;4909874;29;20097;-77
2023/07/10 07:45:28;;;;;;;6.35;2.95;;;29.10;70.90;;;;;;4909418;29;20029;-76
2023/07/10 07:47:54;;;;;;;7.25;3.55;;;29.30;70.50;;;;;;4908988;29;20059;-75
2023/07/10 07:50:20;;;;;;;9.18;3.35;;;29.40;70.40;;;;;;4909493;29;20326;-75
2023/07/10 07:52:45;;;;;;;7.53;2.97;;;29.40;70.30;;;;;;4910013;29;20032;-75
2023/07/10 07:55:11;;;;;;;9.50;3.30;;;29.50;70.40;;;;;;4909290;29;20028;-75
2023/07/10 07:57:38;;;;;;;7.65;3.00;;;29.50;70.40;;;;;;4908666;29;20044;-77
2023/07/10 08:00:05;;;;;;;6.32;3.30;;;29.50;70.20;;;;;;4908428;29;20030;-74
2023/07/10 08:02:38;;;;;;;5.22;3.05;;;29.70;70.30;;;;;;4910008;29;20052;-76
2023/07/10 08:05:04;;;;;;;7.13;3.28;;;29.90;69.50;;;;;;4911344;29;20043;-77
2023/07/10 08:07:29;;;;;;;5.43;3.50;;;29.90;69.60;;;;;;4909829;29;20390;-76
2023/07/10 08:09:55;;;;;;;6.45;3.35;;;30.10;69.10;;;;;;4908174;29;20028;-75
2023/07/10 08:12:24;;;;;;;6.10;3.45;;;30.20;68.90;;;;;;4909099;29;20037;-73
2023/07/10 08:14:53;;;;;;;4.80;3.00;;;30.20;69.10;;;;;;4908665;29;20036;-76
2023/07/10 08:17:18;;;;;;;6.38;3.63;;;30.20;69.10;;;;;;4908173;29;20032;-77
2023/07/10 08:19:44;;;;;;;6.50;3.30;;;30.30;68.90;;;;;;4909186;29;20079;-78
2023/07/10 08:22:10;;;;;;;5.53;3.00;;;30.30;68.70;;;;;;4909329;29;20024;-77
2023/07/10 08:24:35;;;;;;;5.25;2.90;;;30.50;68.70;;;;;;4908644;29;20047;-78
2023/07/10 08:27:01;;;;;;;5.38;3.03;;;30.60;68.30;;;;;;4908090;29;20024;-78
2023/07/10 08:29:30;;;;;;;5.93;3.20;;;30.00;68.90;;;;;;4891997;29;20025;-77
2023/07/10 08:32:11;;;;;;;4.45;3.10;;;29.90;69.70;;;;;;4909354;29;20099;-75
2023/07/10 08:34:38;;;;;;;5.90;3.10;;;29.90;70.10;;;;;;4908079;29;20064;-77
2023/07/10 08:37:07;;;;;;;5.90;3.20;;;30.00;70.40;;;;;;4892485;29;20025;-76
2023/07/10 08:39:33;;;;;;;7.75;4.32;;;30.10;69.90;;;;;;4907985;29;20032;-77
2023/07/10 08:42:09;;;;;;;6.93;3.25;;;30.10;70.50;;;;;;4889124;29;20108;-76
2023/07/10 08:44:39;;;;;;;5.72;3.30;;;30.00;70.60;;;;;;4888316;29;20031;-74
2023/07/10 08:47:23;;;;;;;4.85;3.13;;;29.90;71.10;;;;;;4873667;29;20039;-76
2023/07/10 08:49:56;;;;;;;4.95;3.60;;;30.10;71.00;;;;;;4888904;29;20259;-76
2023/07/10 08:52:49;;;;;;;6.20;3.58;;;30.40;70.30;;;;;;4888987;29;20033;-75
2023/07/10 08:55:27;;;;;;;5.97;3.05;;;30.40;70.50;;;;;;4889173;29;20040;-71
2023/07/10 08:58:17;;;;;;;7.53;3.75;;;30.20;70.60;;;;;;4889865;29;20029;-75
2023/07/10 09:00:45;;;;;;;5.45;3.15;;;30.20;71.00;;;;;;4889552;29;20218;-74
2023/07/10 09:03:45;;;;;;;5.63;3.45;;;30.30;70.50;;;;;;4889523;29;20216;-74
2023/07/10 09:06:25;;;;;;;5.28;3.22;;;30.40;70.90;;;;;;4868751;29;20049;-76
2023/07/10 09:08:53;;;;;;;4.85;3.55;;;30.40;71.10;;;;;;4894008;29;20033;-73
2023/07/10 09:11:20;;;;;;;5.88;3.80;;;30.60;70.70;;;;;;4906517;29;20040;-72
2023/07/10 09:14:16;;;;;;;7.63;3.97;;;30.50;71.00;;;;;;4907768;29;20096;-75
2023/07/10 09:16:45;;;;;;;7.30;3.73;;;30.50;71.70;;;;;;4908059;29;20032;-73
2023/07/10 09:19:15;;;;;;;6.72;3.97;;;30.40;71.80;;;;;;4907853;29;20322;-73
2023/07/10 09:21:41;;;;;;;7.18;3.80;;;30.50;71.70;;;;;;4908421;29;20040;-74
2023/07/10 09:24:16;;;;;;;7.97;3.33;;;30.70;71.80;;;;;;4907856;29;20324;-73
2023/07/10 09:26:42;;;;;;;7.45;3.75;;;31.10;71.50;;;;;;4908028;29;20331;-71
2023/07/10 09:29:10;;;;;;;7.10;3.35;;;31.00;71.10;;;;;;4908032;29;20180;-71
2023/07/10 09:31:42;;;;;;;5.70;3.50;;;31.00;71.10;;;;;;4907234;29;20298;-74
2023/07/10 09:34:11;;;;;;;4.65;3.50;;;31.10;70.70;;;;;;4908096;29;20153;-74
2023/07/10 09:36:36;;;;;;;5.78;3.90;;;31.20;70.40;;;;;;4907406;29;20036;-73
2023/07/10 09:39:03;;;;;;;7.50;3.72;;;31.30;70.30;;;;;;4906702;29;20047;-73
2023/07/10 09:41:30;;;;;;;6.95;3.83;;;31.50;70.00;;;;;;4906024;29;20302;-73
2023/07/10 09:44:21;;;;;;;7.15;3.40;;;31.40;70.10;;;;;;4907581;29;20224;-73
2023/07/10 09:46:47;;;;;;;6.97;3.50;;;31.30;70.10;;;;;;4905050;29;20044;-73
2023/07/10 09:49:21;;;;;;;6.05;3.63;;;31.30;70.40;;;;;;4908495;29;20310;-73
2023/07/10 09:52:01;;;;;;;6.20;3.55;;;31.50;70.40;;;;;;4907606;29;20032;-74
2023/07/10 09:54:38;;;;;;;9.05;3.55;;;31.80;69.60;;;;;;4906828;29;20036;-72
2023/07/10 09:57:12;;;;;;;8.15;3.70;;;32.10;69.00;;;;;;4907506;29;20075;-73
2023/07/10 09:59:38;;;;;;;6.35;3.22;;;32.10;68.50;;;;;;4906908;29;20319;-72
2023/07/10 10:02:34;;;;;;;6.30;3.20;;;32.00;68.00;;;;;;4906964;29;20067;-70
2023/07/10 10:05:11;;;;;;;6.57;3.72;;;31.60;68.60;;;;;;4902866;29;20058;-70
2023/07/10 10:07:40;;;;;;;6.20;3.40;;;31.70;68.80;;;;;;4906765;29;20301;-71
2023/07/10 10:10:27;;;;;;;7.30;3.95;;;31.50;68.60;;;;;;4907573;29;20059;-73
2023/07/10 10:13:04;;;;;;;5.85;3.58;;;31.30;69.50;;;;;;4888708;29;20048;-74
2023/07/10 10:15:40;;;;;;;6.47;3.30;;;31.30;69.60;;;;;;4887672;29;20035;-75
2023/07/10 10:18:17;;;;;;;6.43;3.67;;;31.50;69.00;;;;;;4888860;29;20033;-71
2023/07/10 10:20:44;;;;;;;5.90;3.67;;;31.60;68.40;;;;;;4888792;29;20041;-71
2023/07/10 10:23:29;;;;;;;7.80;3.92;;;31.80;68.10;;;;;;4905292;29;20013;-73
2023/07/10 10:26:14;;;;;;;8.40;4.38;;;31.90;67.70;;;;;;4902499;29;20112;-76
2023/07/10 10:28:52;;;;;;;8.27;4.50;;;31.90;67.90;;;;;;4905899;29;20047;-73
2023/07/10 10:31:25;;;;;;;7.63;4.93;;;32.10;67.50;;;;;;4906740;29;20024;-74
2023/07/10 10:34:28;;;;;;;6.35;4.07;;;32.10;67.50;;;;;;4907353;29;20036;-75
2023/07/10 10:37:06;;;;;;;5.25;3.70;;;32.30;67.20;;;;;;4907502;29;20037;-73
2023/07/10 10:39:37;;;;;;;6.15;4.10;;;32.30;67.00;;;;;;4906453;29;20212;-74
2023/07/10 10:42:23;;;;;;;6.78;3.85;;;32.40;67.40;;;;;;4907462;29;20091;-74
2023/07/10 10:45:00;;;;;;;5.75;3.45;;;32.50;66.80;;;;;;4921064;29;20277;-75
2023/07/10 10:47:43;;;;;;;6.33;3.73;;;32.40;66.40;;;;;;4905032;29;20365;-74
2023/07/10 10:50:28;;;;;;;5.63;3.92;;;32.60;66.80;;;;;;4888495;29;20418;-75
2023/07/10 10:53:15;;;;;;;5.95;3.78;;;32.70;66.40;;;;;;4888209;29;20386;-76
2023/07/10 10:55:48;;;;;;;6.75;3.75;;;33.00;65.10;;;;;;4888345;29;20039;-74
2023/07/10 10:58:25;;;;;;;8.60;4.15;;;32.80;65.80;;;;;;4902959;29;20060;-75
2023/07/10 11:01:09;;;;;;;7.70;3.85;;;32.50;66.40;;;;;;4912019;29;20052;-75
2023/07/10 11:03:44;;;;;;;6.22;3.95;;;32.60;65.80;;;;;;4887767;29;20282;-75
2023/07/10 11:06:30;;;;;;;7.78;3.78;;;32.60;66.40;;;;;;4891849;29;20327;-75
2023/07/10 11:09:04;;;;;;;6.75;3.53;;;32.80;66.10;;;;;;4896756;29;20337;-75
2023/07/10 11:11:35;;;;;;;7.43;3.58;;;33.00;65.40;;;;;;4901263;29;20196;-77
2023/07/10 11:14:03;;;;;;;6.88;4.20;;;33.00;65.30;;;;;;4909485;29;20116;-72
2023/07/10 11:16:30;;;;;;;;;;;33.10;65.10;;;;;;4891688;29;20081;-74
2023/07/10 11:18:57;;;;;;;12.38;6.20;;;33.20;64.90;;;;;;4891664;29;19915;-77
2023/07/10 11:21:23;;;;;;;5.38;3.47;;;33.50;64.80;;;;;;4905658;29;20036;-74
2023/07/10 11:23:50;;;;;;;6.90;3.47;;;33.80;63.70;;;;;;4910258;29;20040;-73
2023/07/10 11:26:21;;;;;;;9.38;4.00;;;34.00;63.50;;;;;;4910264;29;20103;-75
2023/07/10 11:28:58;;;;;;;9.50;3.97;;;33.80;62.80;;;;;;4909121;29;20047;-73
2023/07/10 11:31:37;;;;;;;8.15;4.07;;;33.80;62.80;;;;;;4909865;29;20032;-74
2023/07/10 11:34:29;;;;;;;6.80;3.80;;;33.60;62.80;;;;;;4910295;29;20055;-73
2023/07/10 11:36:56;;;;;;;6.55;3.75;;;33.70;62.30;;;;;;4909564;29;20037;-75
2023/07/10 11:39:35;;;;;;;6.10;3.25;;;34.10;62.40;;;;;;4909776;29;20021;-74
2023/07/10 11:42:14;;;;;;;5.07;3.50;;;34.30;61.60;;;;;;4910200;29;20044;-75
2023/07/10 11:44:41;;;;;;;6.15;3.45;;;34.90;60.20;;;;;;4908382;29;20048;-74
2023/07/10 11:47:07;;;;;;;6.38;3.35;;;35.10;59.30;;;;;;4909744;29;20139;-73
2023/07/10 11:49:45;;;;;;;7.80;3.60;;;35.30;58.60;;;;;;4909483;29;20033;-74
2023/07/10 11:52:14;;;;;;;5.65;3.30;;;35.40;58.90;;;;;;4909754;29;20029;-75
2023/07/10 11:54:41;;;;;;;5.20;3.28;;;35.60;58.10;;;;;;4909461;29;20032;-73
2023/07/10 11:57:09;;;;;;;6.90;3.08;;;37.00;56.60;;;;;;4912221;29;20032;-73
2023/07/10 11:59:44;;;;;;;5.32;3.30;;;38.30;54.60;;;;;;4912975;29;20028;-73
2023/07/10 12:02:28;;;;;;;5.28;3.10;;;38.50;52.90;;;;;;4910297;29;20048;-76
2023/07/10 12:04:57;;;;;;;4.63;2.90;;;39.10;52.20;;;;;;4908617;29;20063;-74
2023/07/10 12:07:23;;;;;;;5.53;3.08;;;39.20;51.80;;;;;;4909415;29;20066;-74
2023/07/10 12:09:55;;;;;;;7.45;3.67;;;39.90;51.30;;;;;;4909519;29;20028;-73
2023/07/10 12:12:21;;;;;;;4.97;3.03;;;40.70;50.80;;;;;;4908920;29;20035;-74
2023/07/10 12:14:46;;;;;;;4.22;2.60;;;40.10;49.90;;;;;;4909095;29;20041;-75
2023/07/10 12:17:18;;;;;;;7.57;3.00;;;39.80;49.80;;;;;;4909242;29;20076;-74
2023/07/10 12:19:45;;;;;;;9.70;3.47;;;39.50;49.70;;;;;;4909081;29;20227;-72
2023/07/10 12:22:17;;;;;;;4.82;3.28;;;37.90;50.90;;;;;;4909394;29;20040;-75
2023/07/10 12:24:55;;;;;;;5.35;3.08;;;36.70;52.00;;;;;;4909347;29;20039;-76
2023/07/10 12:27:22;;;;;;;5.05;2.60;;;36.10;52.40;;;;;;4908886;29;20028;-75
2023/07/10 12:29:53;;;;;;;4.80;2.92;;;37.10;51.60;;;;;;4909188;29;20039;-73
2023/07/10 12:32:21;;;;;;;5.15;2.70;;;38.40;50.30;;;;;;4908848;29;20040;-75
2023/07/10 12:34:47;;;;;;;6.18;2.88;;;39.10;49.60;;;;;;4908155;29;20033;-77
2023/07/10 12:37:16;;;;;;;9.43;3.92;;;39.90;48.80;;;;;;4909637;29;20214;-75
2023/07/10 12:39:43;;;;;;;5.18;2.78;;;39.90;47.80;;;;;;4908855;29;20024;-76
2023/07/10 12:42:33;;;;;;;6.13;2.80;;;40.40;47.90;;;;;;4908238;29;20259;-75
2023/07/10 12:45:05;;;;;;;5.47;2.75;;;41.30;46.90;;;;;;4905852;29;20254;-73
2023/07/10 12:47:34;;;;;;;4.72;2.88;;;41.10;47.00;;;;;;4908324;29;20031;-75
2023/07/10 12:50:01;;;;;;;4.45;2.58;;;41.20;46.70;;;;;;4908245;29;20052;-77
2023/07/10 12:52:37;;;;;;;4.30;2.70;;;41.60;46.30;;;;;;4906698;29;20031;-77
2023/07/10 12:55:11;;;;;;;4.22;2.75;;;41.50;45.80;;;;;;4907349;29;20322;-77
2023/07/10 12:57:37;;;;;;;9.88;2.97;;;41.80;45.40;;;;;;4908065;29;20315;-76
2023/07/10 13:00:09;;;;;;;4.80;3.10;;;42.90;45.40;;;;;;4907665;29;20096;-82
2023/07/10 13:02:39;;;;;;;3.83;2.50;;;43.30;45.20;;;;;;4907634;29;20341;-77
2023/07/10 13:05:18;;;;;;;3.70;2.65;;;43.40;44.10;;;;;;4905437;29;20036;-76
2023/07/10 13:07:44;;;;;;;5.57;2.92;;;43.00;44.20;;;;;;4908381;29;20100;-73
2023/07/10 13:10:49;;;;;;;6.05;2.92;;;41.80;44.80;;;;;;4908088;29;20251;-74
2023/07/10 13:13:20;;;;;;;3.85;2.50;;;41.50;45.50;;;;;;4889073;29;20033;-76
2023/07/10 13:15:47;;;;;;;4.65;2.85;;;43.00;44.00;;;;;;4903298;29;20103;-74
2023/07/10 13:18:24;;;;;;;5.38;2.97;;;43.60;43.10;;;;;;4908542;29;20021;-75
2023/07/10 13:20:50;;;;;;;4.05;2.45;;;43.60;42.90;;;;;;4907370;29;20036;-73
2023/07/10 13:23:16;;;;;;;4.22;2.53;;;44.00;42.80;;;;;;4907927;29;20322;-75
2023/07/10 13:25:42;;;;;;;3.53;2.30;;;43.90;42.80;;;;;;4906694;29;20035;-73
2023/07/10 13:28:20;;;;;;;4.25;2.60;;;43.90;43.00;;;;;;4907787;29;20047;-75
2023/07/10 13:30:46;;;;;;;5.85;2.55;;;44.30;42.60;;;;;;4908025;29;20056;-74
2023/07/10 13:33:21;;;;;;;4.43;2.70;;;44.10;43.20;;;;;;4907890;29;20049;-74
2023/07/10 13:35:51;;;;;;;3.53;2.50;;;44.90;42.90;;;;;;4907007;29;20219;-73
2023/07/10 13:38:17;;;;;;;4.70;2.70;;;45.30;42.00;;;;;;4907560;29;20032;-75
2023/07/10 13:40:43;;;;;;;5.78;2.65;;;43.50;42.50;;;;;;4908042;29;20095;-76
2023/07/10 13:43:20;;;;;;;6.22;2.60;;;43.40;42.80;;;;;;4907914;29;20321;-76
2023/07/10 13:45:51;;;;;;;;;;;43.50;43.10;;;;;;4907437;29;20044;-75
2023/07/10 13:48:17;;;;;;;5.45;3.75;;;43.60;43.30;;;;;;4907586;29;19912;-77
2023/07/10 13:50:46;;;;;;;4.93;3.00;;;43.40;43.70;;;;;;4906861;29;20314;-74
2023/07/10 13:53:15;;;;;;;3.80;2.60;;;43.10;44.20;;;;;;4906988;29;20276;-75
2023/07/10 13:55:41;;;;;;;6.47;2.92;;;43.80;44.00;;;;;;4907602;29;20036;-76
2023/07/10 13:58:22;;;;;;;4.90;3.03;;;44.20;43.80;;;;;;4909073;29;20047;-75
2023/07/10 14:00:51;;;;;;;5.68;2.75;;;44.10;43.60;;;;;;4908061;29;20037;-75
2023/07/10 14:03:24;;;;;;;5.10;2.80;;;45.10;43.00;;;;;;4906384;29;20056;-75
2023/07/10 14:05:55;;;;;;;4.88;3.20;;;44.70;43.00;;;;;;4916597;29;20008;-75
2023/07/10 14:08:26;;;;;;;4.53;2.70;;;44.40;43.50;;;;;;4897346;29;20036;-77
2023/07/10 14:10:54;;;;;;;5.07;2.97;;;43.60;44.00;;;;;;4910193;29;20099;-77
2023/07/10 14:13:20;;;;;;;5.35;2.80;;;44.40;43.70;;;;;;4907254;29;20104;-76
2023/07/10 14:16:03;;;;;;;3.65;2.80;;;45.00;43.30;;;;;;4906216;29;20107;-74
2023/07/10 14:18:29;;;;;;;5.07;2.70;;;45.30;42.90;;;;;;4906232;29;20040;-75
2023/07/10 14:25:05;;;;;;;5.05;2.97;;;46.20;42.80;;;;;;4919891;29;20104;-79
2023/07/10 14:27:50;;;;;;;4.65;2.80;;;47.10;42.30;;;;;;4905410;29;20028;-76
2023/07/10 14:33:39;;;;;;;5.85;3.42;;;46.40;41.70;;;;;;4905544;29;20035;-77
2023/07/10 14:36:17;;;;;;;4.55;3.00;;;45.30;42.60;;;;;;4890376;29;20060;-79
2023/07/10 14:38:43;;;;;;;5.03;2.90;;;45.00;42.80;;;;;;4892386;29;20040;-77
2023/07/10 14:41:15;;;;;;;5.33;2.60;;;44.60;43.30;;;;;;4909571;29;20261;-79
2023/07/10 14:43:43;;;;;;;5.57;2.83;;;44.40;43.20;;;;;;4892871;29;20031;-75
2023/07/10 14:46:14;;;;;;;;;;;44.40;43.30;;;;;;4909690;29;20041;-74
2023/07/10 14:48:40;;;;;;;7.03;4.50;;;44.30;43.50;;;;;;4908892;29;20277;-76
2023/07/10 14:51:08;;;;;;;3.53;2.70;;;44.90;43.30;;;;;;4909153;29;20036;-76
2023/07/10 14:53:34;;;;;;;4.57;2.88;;;45.10;43.10;;;;;;4892932;29;20040;-74
2023/07/10 14:56:01;;;;;;;4.38;2.90;;;44.50;43.10;;;;;;4877787;29;20037;-72
2023/07/10 14:58:29;;;;;;;4.20;2.60;;;43.10;43.90;;;;;;4908423;29;20047;-75
2023/07/10 15:00:55;;;;;;;5.63;3.85;;;42.40;45.00;;;;;;4874971;29;20029;-76
2023/07/10 15:03:22;;;;;;;5.03;3.00;;;42.60;45.20;;;;;;4890542;29;20350;-77
2023/07/10 15:05:52;;;;;;;3.05;2.50;;;42.80;45.10;;;;;;4905581;29;20033;-77
2023/07/10 15:08:34;;;;;;;3.72;2.85;;;43.10;44.40;;;;;;4891519;29;20033;-77
2023/07/10 15:11:01;;;;;;;5.03;2.85;;;43.10;44.50;;;;;;4910766;29;20025;-77
2023/07/10 15:13:29;;;;;;;5.67;3.03;;;44.00;44.10;;;;;;4910666;29;20096;-75
2023/07/10 15:16:02;;;;;;;4.63;2.70;;;43.90;43.80;;;;;;4910818;29;20035;-76
2023/07/10 15:18:32;;;;;;;4.30;3.20;;;43.60;44.10;;;;;;4909287;29;20032;-78
2023/07/10 15:20:58;;;;;;;4.70;3.30;;;42.80;44.30;;;;;;4894302;29;20307;-77
2023/07/10 15:23:29;;;;;;;6.28;2.83;;;42.70;44.70;;;;;;4910868;29;20078;-78
2023/07/10 15:26:00;;;;;;;4.00;2.90;;;42.30;44.90;;;;;;4925418;29;20028;-77
2023/07/10 15:28:29;;;;;;;5.90;2.97;;;42.60;44.70;;;;;;4893247;29;20033;-78
2023/07/10 15:31:21;;;;;;;3.88;2.90;;;42.80;44.40;;;;;;4909262;29;20047;-78
2023/07/10 15:33:48;;;;;;;5.15;2.97;;;42.90;45.20;;;;;;4893716;29;20345;-77
2023/07/10 15:36:19;;;;;;;4.30;2.80;;;43.10;44.30;;;;;;4909232;29;20035;-76
2023/07/10 15:38:45;;;;;;;5.78;3.00;;;43.10;44.10;;;;;;4924860;29;20032;-74
2023/07/10 15:41:21;;;;;;;4.15;2.92;;;42.70;44.20;;;;;;4909139;29;20244;-74
2023/07/10 15:43:47;;;;;;;4.78;2.72;;;41.80;45.10;;;;;;4909178;29;20036;-76
2023/07/10 15:46:13;;;;;;;4.63;3.00;;;41.40;45.40;;;;;;4909971;29;20092;-73
2023/07/10 15:48:40;;;;;;;4.65;3.05;;;41.30;45.50;;;;;;4909517;29;20036;-75
2023/07/10 15:51:18;;;;;;;4.18;3.08;;;41.50;45.00;;;;;;4907885;29;20076;-75
2023/07/10 15:53:44;;;;;;;5.80;2.90;;;41.10;45.40;;;;;;4910157;29;20295;-74
2023/07/10 15:56:10;;;;;;;4.35;2.92;;;41.10;45.20;;;;;;4909765;29;20036;-75
2023/07/10 15:58:36;;;;;;;4.57;3.00;;;41.10;45.40;;;;;;4909294;29;20043;-75
2023/07/10 16:01:01;;;;;;;6.78;3.40;;;40.90;45.60;;;;;;4909712;29;20303;-76
2023/07/10 16:03:30;;;;;;;5.60;2.88;;;41.20;45.60;;;;;;4909296;29;20044;-75
2023/07/10 16:06:02;;;;;;;9.13;3.15;;;40.80;45.50;;;;;;4909822;29;20048;-74
2023/07/10 16:08:30;;;;;;;5.32;3.22;;;41.10;45.40;;;;;;4909305;29;20036;-75
2023/07/10 16:10:59;;;;;;;4.82;2.80;;;41.50;45.00;;;;;;4908899;29;20087;-77
2023/07/10 16:13:29;;;;;;;4.55;2.85;;;41.80;44.50;;;;;;4909331;29;20064;-76
2023/07/10 16:15:55;;;;;;;4.05;2.88;;;41.40;44.90;;;;;;4908580;29;20083;-76
2023/07/10 16:18:28;;;;;;;5.43;2.92;;;41.10;45.10;;;;;;4907714;29;20032;-77
2023/07/10 16:20:56;;;;;;;6.32;3.35;;;40.70;45.20;;;;;;4909637;29;20051;-76
2023/07/10 16:23:29;;;;;;;6.45;3.38;;;39.70;46.00;;;;;;4908829;29;20080;-76
2023/07/10 16:25:55;;;;;;;5.43;3.28;;;39.20;46.50;;;;;;4909279;29;20059;-76
2023/07/10 16:28:24;;;;;;;4.38;2.97;;;39.20;46.80;;;;;;4908772;29;20247;-74
2023/07/10 16:30:50;;;;;;;5.03;2.97;;;39.00;46.90;;;;;;4908396;29;20048;-74
2023/07/10 16:33:22;;;;;;;6.90;3.13;;;38.80;47.10;;;;;;4909084;29;20386;-73
2023/07/10 16:35:49;;;;;;;5.95;3.28;;;38.50;47.70;;;;;;4907755;29;20083;-75
2023/07/10 16:38:17;;;;;;;5.20;3.47;;;38.20;47.70;;;;;;4909303;29;20033;-75
2023/07/10 16:40:49;;;;;;;6.30;3.50;;;37.60;48.30;;;;;;4908130;29;20025;-74
2023/07/10 16:43:20;;;;;;;3.75;3.10;;;37.50;48.40;;;;;;4924353;29;20192;-76
2023/07/10 16:45:48;;;;;;;4.10;3.28;;;37.80;48.30;;;;;;4908310;29;20044;-74
2023/07/10 16:48:32;;;;;;;6.93;2.97;;;37.80;47.90;;;;;;4907928;29;20024;-74
2023/07/10 16:51:00;;;;;;;4.35;2.70;;;37.40;48.10;;;;;;4909035;29;20028;-77
2023/07/10 16:53:29;;;;;;;5.90;2.63;;;37.20;48.60;;;;;;4923373;29;20029;-76
2023/07/10 16:55:57;;;;;;;4.68;2.80;;;36.70;49.30;;;;;;4907706;29;20036;-76
2023/07/10 16:58:26;;;;;;;5.75;2.90;;;36.20;49.60;;;;;;4908300;29;20297;-75
2023/07/10 17:00:53;;;;;;;6.03;2.92;;;35.80;50.00;;;;;;4908820;29;20025;-76
2023/07/10 17:03:23;;;;;;;5.80;3.10;;;35.20;50.70;;;;;;4907919;29;20041;-75
2023/07/10 17:05:49;;;;;;;4.90;2.92;;;35.00;50.80;;;;;;4908410;29;20270;-76
2023/07/10 17:08:18;;;;;;;4.38;2.78;;;34.80;51.10;;;;;;4907724;29;20230;-74
2023/07/10 17:10:44;;;;;;;4.60;3.33;;;35.10;50.80;;;;;;4908751;29;20021;-76
2023/07/10 17:13:15;;;;;;;4.32;2.90;;;35.40;50.40;;;;;;4907610;29;20033;-75
2023/07/10 17:15:54;;;;;;;3.90;2.63;;;35.70;50.10;;;;;;4908018;29;20068;-75
2023/07/10 17:18:30;;;;;;;3.92;2.58;;;35.70;49.90;;;;;;4907845;29;20035;-73
2023/07/10 17:20:59;;;;;;;5.38;2.78;;;35.80;49.60;;;;;;4907620;29;20092;-76
2023/07/10 17:23:29;;;;;;;7.05;2.65;;;35.80;49.60;;;;;;4908027;29;20020;-75
2023/07/10 17:25:55;;;;;;;4.70;2.83;;;36.00;49.20;;;;;;4908345;29;20039;-73
2023/07/10 17:28:47;;;;;;;6.75;3.13;;;35.80;49.40;;;;;;4907800;29;20036;-73
2023/07/10 17:31:25;;;;;;;3.95;2.40;;;35.60;49.80;;;;;;4907473;29;20037;-76
2023/07/10 17:33:52;;;;;;;4.95;3.00;;;35.60;49.60;;;;;;4908122;29;20033;-74
2023/07/10 17:36:19;;;;;;;8.05;2.92;;;35.50;49.70;;;;;;4907664;29;20040;-75
2023/07/10 17:38:45;;;;;;;3.60;2.45;;;35.40;49.80;;;;;;4908068;29;20028;-74
2023/07/10 17:41:24;;;;;;;5.95;2.97;;;35.40;49.80;;;;;;4908357;29;20072;-74
2023/07/10 17:43:56;;;;;;;5.95;3.10;;;35.10;50.10;;;;;;4923131;29;20341;-73
2023/07/10 17:46:23;;;;;;;6.07;2.70;;;35.00;50.70;;;;;;4907971;29;20040;-76
2023/07/10 17:48:49;;;;;;;4.57;3.20;;;34.90;50.00;;;;;;4922891;29;20025;-76
2023/07/10 17:51:30;;;;;;;5.65;2.65;;;34.60;50.30;;;;;;4908272;29;20222;-73
2023/07/10 17:53:57;;;;;;;5.03;2.63;;;34.20;50.70;;;;;;4908037;29;20109;-75
2023/07/10 17:56:24;;;;;;;7.90;2.80;;;33.90;51.00;;;;;;4907196;29;20060;-76
2023/07/10 17:58:53;;;;;;;5.47;2.38;;;33.50;51.50;;;;;;4907960;29;20095;-76
2023/07/10 18:01:21;;;;;;;5.03;2.38;;;33.40;51.60;;;;;;4907297;29;20032;-76
2023/07/10 18:03:48;;;;;;;5.32;2.75;;;33.30;51.60;;;;;;4907706;29;20047;-76
2023/07/10 18:06:15;;;;;;;5.43;3.10;;;33.30;51.60;;;;;;4907698;29;20087;-75
2023/07/10 18:08:42;;;;;;;4.68;2.58;;;33.30;51.70;;;;;;4907023;29;20246;-74
2023/07/10 18:11:21;;;;;;;5.15;2.72;;;33.10;51.70;;;;;;4906477;29;20330;-75
2023/07/10 18:13:47;;;;;;;4.22;2.58;;;33.00;51.90;;;;;;4907596;29;20034;-75
2023/07/10 18:16:14;;;;;;;4.72;2.50;;;32.90;52.20;;;;;;4906334;29;20036;-74